Time;durP1;ratioP1;P1;durP2;ratioP2;P2;SDS_P1;SDS_P2;PMS_P1;PMS_P2;Temp;Humidity;BMP_temperature;BMP_pressure;BME280_temperature;BME280_humidity;BME280_pressure;Samples;Min_cycle;Max_cycle;Signal;HPM_P1;HPM_P2
2023/06/16 00:05:49;;;;;;;11.00;9.40;;;;;;;10.49;83.69;99391.64;436595;1254;139468;-69
2023/06/16 00:15:52;;;;;;;12.40;9.90;;;;;;;10.43;84.15;99389.73;436204;1251;139843;-67
2023/06/16 00:25:56;;;;;;;11.10;9.10;;;;;;;10.40;84.75;99386.05;436047;1250;141251;-69
2023/06/16 00:35:59;;;;;;;12.00;7.80;;;;;;;10.31;84.22;99382.45;436829;1251;139915;-66
2023/06/16 00:46:02;;;;;;;10.30;9.40;;;;;;;10.22;84.51;99384.41;436175;1250;139111;-69
2023/06/16 00:56:05;;;;;;;11.60;9.80;;;;;;;10.16;84.84;99375.20;436130;1251;141633;-69
2023/06/16 01:06:22;;;;;;;16.70;9.60;;;;;;;10.07;85.22;99362.11;436441;1253;139079;-68
2023/06/16 01:16:31;;;;;;;10.70;9.20;;;;;;;9.98;85.22;99353.83;437006;1250;139928;-70
2023/06/16 01:26:37;;;;;;;11.40;8.00;;;;;;;9.86;84.94;99348.96;436217;1251;140984;-68
2023/06/16 01:36:42;;;;;;;11.40;10.00;;;;;;;9.75;84.82;99347.90;436102;1254;141721;-68
2023/06/16 01:46:47;;;;;;;14.90;8.00;;;;;;;9.69;85.13;99350.27;436787;1251;138757;-68
2023/06/16 01:56:50;;;;;;;10.60;9.10;;;;;;;9.59;84.93;99355.23;436343;1254;138970;-69
2023/06/16 02:07:01;;;;;;;12.70;9.60;;;;;;;9.53;85.75;99358.25;436839;1253;140169;-68
2023/06/16 02:17:06;;;;;;;12.80;11.50;;;;;;;9.48;86.29;99356.80;436244;1250;139717;-68
2023/06/16 02:27:09;;;;;;;16.60;10.50;;;;;;;9.49;87.67;99358.30;436370;1256;141377;-68
2023/06/16 02:37:12;;;;;;;16.70;15.00;;;;;;;9.54;88.56;99355.03;436572;1253;141084;-69
2023/06/16 02:47:15;;;;;;;10.20;9.10;;;;;;;9.72;89.40;99360.35;436611;1250;139602;-68
2023/06/16 02:57:19;;;;;;;19.80;17.60;;;;;;;10.07;89.01;99363.54;436359;1253;139272;-68
2023/06/16 03:07:22;;;;;;;16.00;12.10;;;;;;;11.36;89.36;99365.66;436441;1254;141123;-68
2023/06/16 03:17:25;;;;;;;14.90;10.90;;;;;;;13.73;84.89;99357.61;436957;1250;139116;-73
2023/06/16 03:27:28;;;;;;;14.50;10.00;;;;;;;14.92;79.38;99354.30;436439;1251;139154;-67
2023/06/16 03:37:31;;;;;;;14.90;13.50;;;;;;;16.78;74.31;99350.24;436430;1253;140537;-68
2023/06/16 03:47:35;;;;;;;14.10;12.10;;;;;;;15.76;72.58;99360.48;436806;1256;139142;-68
2023/06/16 03:57:38;;;;;;;13.00;11.70;;;;;;;17.02;73.77;99358.94;436823;1256;139099;-69
2023/06/16 04:07:41;;;;;;;11.30;10.20;;;;;;;23.46;66.38;99355.86;436407;1254;139978;-68
2023/06/16 04:17:44;;;;;;;10.70;9.90;;;;;;;27.59;57.45;99351.20;436442;1251;139326;-68
2023/06/16 04:27:49;;;;;;;9.00;8.20;;;;;;;30.82;50.23;99350.48;436648;1251;138753;-70
2023/06/16 04:37:53;;;;;;;10.80;8.70;;;;;;;33.64;44.42;99346.33;436806;1254;139666;-68
2023/06/16 04:47:56;;;;;;;11.90;10.50;;;;;;;35.46;39.62;99337.65;436665;1251;138270;-69
2023/06/16 04:58:00;;;;;;;10.20;8.90;;;;;;;37.46;35.90;99337.59;436870;1256;140806;-70
2023/06/16 05:08:04;;;;;;;14.20;10.20;;;;;;;39.85;32.70;99330.42;436690;1254;138971;-69
2023/06/16 05:18:08;;;;;;;8.50;7.80;;;;;;;41.95;29.70;99337.93;437255;1253;139139;-69
2023/06/16 05:28:11;;;;;;;8.30;7.50;;;;;;;43.55;27.26;99339.87;436363;1255;140873;-70
2023/06/16 05:38:14;;;;;;;9.70;8.90;;;;;;;45.26;25.22;99333.65;435411;1255;138641;-69
2023/06/16 05:48:17;;;;;;;7.40;6.60;;;;;;;46.53;23.27;99329.28;436283;1253;139068;-69
2023/06/16 05:58:21;;;;;;;7.70;6.50;;;;;;;47.80;21.74;99330.06;437478;1254;138103;-70
2023/06/16 06:08:27;;;;;;;6.90;6.00;;;;;;;49.57;20.43;99329.48;436343;1253;139457;-69
2023/06/16 06:18:30;;;;;;;7.70;5.90;;;;;;;50.97;19.03;99329.23;436156;1256;138459;-67
2023/06/16 06:28:33;;;;;;;4.80;4.50;;;;;;;51.66;17.61;99322.85;436272;1251;138137;-69
2023/06/16 06:38:36;;;;;;;5.20;4.50;;;;;;;50.63;16.93;99322.34;436115;1255;138166;-69
2023/06/16 06:48:39;;;;;;;4.00;3.60;;;;;;;52.05;16.30;99323.16;436497;1256;138665;-69
2023/06/16 06:58:42;;;;;;;5.00;4.60;;;;;;;53.73;15.34;99324.70;436124;1251;139396;-70
2023/06/16 07:08:45;;;;;;;7.40;5.40;;;;;;;53.86;14.67;99330.06;436056;1253;138749;-71
2023/06/16 07:18:48;;;;;;;6.50;6.20;;;;;;;54.79;14.23;99328.40;436180;1255;138528;-68
2023/06/16 07:28:51;;;;;;;9.10;8.60;;;;;;;56.43;13.35;99317.05;435856;1253;176923;-64
2023/06/16 07:38:54;;;;;;;8.60;8.20;;;;;;;56.08;12.90;99314.56;435923;1254;138685;-69
2023/06/16 07:48:57;;;;;;;3.20;3.00;;;;;;;54.83;12.41;99312.69;435897;1255;138429;-67
2023/06/16 07:59:00;;;;;;;3.00;2.80;;;;;;;49.05;14.12;99297.09;435938;1254;138357;-68
2023/06/16 08:09:03;;;;;;;3.40;2.80;;;;;;;41.91;16.81;99292.06;435825;1253;139987;-68
2023/06/16 08:19:08;;;;;;;12.20;3.20;;;;;;;37.25;19.54;99291.48;436102;1255;138179;-67
2023/06/16 08:29:12;;;;;;;5.20;2.20;;;;;;;35.02;21.70;99289.58;436037;1251;138161;-69
2023/06/16 08:39:15;;;;;;;5.00;2.30;;;;;;;33.99;23.21;99290.75;436176;1254;138916;-68
2023/06/16 08:49:18;;;;;;;2.90;2.50;;;;;;;32.52;23.98;99300.80;436335;1254;138598;-67
2023/06/16 08:59:27;;;;;;;3.40;2.20;;;;;;;31.05;25.08;99298.29;436204;1251;138334;-67
2023/06/16 09:09:30;;;;;;;3.20;2.90;;;;;;;31.28;25.87;99289.19;436203;1251;138794;-67
2023/06/16 09:19:34;;;;;;;2.80;2.60;;;;;;;30.88;26.08;99284.93;436006;1254;139675;-67
2023/06/16 09:29:38;;;;;;;4.00;2.80;;;;;;;30.33;26.53;99281.50;436799;1251;138094;-67
2023/06/16 09:39:41;;;;;;;4.80;3.60;;;;;;;30.42;26.81;99279.06;436617;1254;140695;-67
2023/06/16 09:49:45;;;;;;;3.30;3.00;;;;;;;30.19;27.80;99270.21;436299;1251;138554;-67
2023/06/16 09:59:48;;;;;;;4.30;3.40;;;;;;;29.88;28.11;99262.20;436709;1251;138261;-67
2023/06/16 10:09:52;;;;;;;4.90;4.00;;;;;;;29.21;28.36;99265.71;436217;1254;138066;-67
2023/06/16 10:19:58;;;;;;;5.60;3.50;;;;;;;29.38;28.52;99265.13;436745;1251;139218;-68
2023/06/16 10:30:05;;;;;;;4.80;3.20;;;;;;;29.17;28.64;99264.73;436322;1251;138696;-67
2023/06/16 10:40:12;;;;;;;4.10;3.50;;;;;;;28.66;29.77;99263.19;436541;1251;138496;-68
2023/06/16 10:50:16;;;;;;;3.90;3.60;;;;;;;28.17;30.63;99256.91;436483;1254;139772;-68
2023/06/16 11:00:20;;;;;;;5.40;3.50;;;;;;;28.11;30.88;99255.02;436607;1252;139914;-68
2023/06/16 11:10:25;;;;;;;4.50;3.80;;;;;;;28.46;30.86;99242.48;436753;1250;139837;-67
2023/06/16 11:20:28;;;;;;;4.60;3.10;;;;;;;28.05;30.53;99242.19;436163;1251;140706;-67
2023/06/16 11:30:31;;;;;;;4.00;3.20;;;;;;;28.10;30.38;99232.98;436240;1251;139305;-68
2023/06/16 11:40:35;;;;;;;3.90;3.60;;;;;;;28.16;30.37;99226.83;436241;1251;139644;-68
2023/06/16 11:50:39;;;;;;;3.70;3.40;;;;;;;28.15;30.20;99219.73;436408;1251;138520;-68
2023/06/16 12:00:43;;;;;;;4.00;3.10;;;;;;;28.16;29.91;99217.78;436318;1251;138913;-68
2023/06/16 12:10:54;;;;;;;4.80;4.30;;;;;;;28.30;30.15;99213.41;436719;1254;138818;-68
2023/06/16 12:21:11;;;;;;;4.70;4.30;;;;;;;28.41;30.58;99211.99;436716;1250;139051;-67
2023/06/16 12:31:15;;;;;;;3.90;3.50;;;;;;;28.48;30.66;99216.19;436941;1254;139355;-67
2023/06/16 12:41:18;;;;;;;3.90;3.60;;;;;;;28.43;30.65;99209.98;436833;1251;139890;-67
2023/06/16 12:51:22;;;;;;;6.30;3.90;;;;;;;27.87;31.17;99201.55;436762;1251;137992;-69
2023/06/16 13:01:25;;;;;;;7.80;4.30;;;;;;;27.79;31.51;99193.91;436661;1254;138635;-67
2023/06/16 13:11:29;;;;;;;5.00;3.80;;;;;;;27.48;31.49;99192.38;436935;1253;138851;-67
2023/06/16 13:21:32;;;;;;;5.50;5.10;;;;;;;27.06;31.90;99195.39;436527;1254;138844;-67
2023/06/16 13:31:35;;;;;;;7.00;5.50;;;;;;;26.72;32.24;99193.98;436391;1254;139684;-67
2023/06/16 13:41:38;;;;;;;5.50;5.10;;;;;;;26.44;32.73;99178.88;436337;1254;139056;-67
2023/06/16 13:51:42;;;;;;;7.50;4.60;;;;;;;26.41;33.09;99163.94;436341;1254;138397;-67
2023/06/16 14:01:45;;;;;;;5.70;5.00;;;;;;;26.31;33.42;99159.05;436715;1251;138544;-67
2023/06/16 14:11:48;;;;;;;5.60;5.10;;;;;;;26.07;33.30;99149.50;437021;1253;137930;-67
2023/06/16 14:21:52;;;;;;;8.80;5.70;;;;;;;25.95;33.59;99141.70;437068;1251;138940;-67
2023/06/16 14:31:55;;;;;;;5.20;4.60;;;;;;;25.97;34.39;99140.77;436655;1254;140033;-67
2023/06/16 14:41:58;;;;;;;6.50;5.30;;;;;;;25.90;34.49;99133.59;436672;1254;138535;-68
2023/06/16 14:52:03;;;;;;;6.60;5.60;;;;;;;25.73;34.06;99119.29;436668;1254;137975;-69
2023/06/16 15:02:07;;;;;;;7.00;5.80;;;;;;;25.65;34.41;99114.65;436723;1250;139845;-67
2023/06/16 15:12:11;;;;;;;6.60;6.10;;;;;;;25.67;34.18;99107.91;436795;1251;139747;-68
2023/06/16 15:22:15;;;;;;;7.00;6.30;;;;;;;25.51;34.30;99102.95;436923;1254;139645;-68
2023/06/16 15:32:18;;;;;;;7.60;7.00;;;;;;;25.16;34.64;99097.61;436326;1251;138829;-68
2023/06/16 15:42:21;;;;;;;7.20;6.40;;;;;;;25.00;35.06;99090.79;436343;1251;139205;-67
2023/06/16 15:52:24;;;;;;;6.70;6.20;;;;;;;24.96;35.40;99084.02;436835;1254;138368;-68
2023/06/16 16:02:27;;;;;;;6.30;5.80;;;;;;;24.57;35.72;99088.55;436571;1251;138002;-68
2023/06/16 16:12:31;;;;;;;7.40;6.40;;;;;;;24.17;36.13;99089.43;436653;1253;138352;-68
2023/06/16 16:22:34;;;;;;;6.50;6.00;;;;;;;24.09;36.82;99089.23;436711;1254;138156;-68
2023/06/16 16:32:37;;;;;;;7.70;7.00;;;;;;;23.83;36.92;99085.48;436550;1251;139139;-68
2023/06/16 16:42:41;;;;;;;7.50;6.80;;;;;;;23.67;37.15;99081.80;436552;1254;139700;-68
2023/06/16 16:52:44;;;;;;;7.40;6.80;;;;;;;23.55;37.34;99090.14;436346;1251;138911;-67
2023/06/16 17:02:47;;;;;;;8.70;7.90;;;;;;;23.53;37.31;99094.45;436382;1254;138277;-67
2023/06/16 17:12:50;;;;;;;6.90;6.40;;;;;;;23.63;37.49;99087.67;436147;1251;138926;-68
2023/06/16 17:22:53;;;;;;;7.40;6.60;;;;;;;23.46;37.57;99085.70;436443;1251;139271;-69
2023/06/16 17:32:57;;;;;;;6.80;6.20;;;;;;;23.33;37.34;99086.63;436500;1251;138646;-67
2023/06/16 17:43:04;;;;;;;7.40;6.80;;;;;;;23.17;37.66;99081.13;436338;1251;138272;-68
2023/06/16 17:53:08;;;;;;;8.20;7.50;;;;;;;23.02;37.91;99073.54;436590;1253;138185;-68
2023/06/16 18:03:11;;;;;;;7.90;7.20;;;;;;;23.29;37.98;99081.00;436334;1250;139453;-67
2023/06/16 18:13:14;;;;;;;7.50;6.90;;;;;;;23.01;38.21;99085.18;436252;1251;139772;-67
2023/06/16 18:23:17;;;;;;;7.80;6.90;;;;;;;22.29;38.90;99084.57;436506;1253;138129;-67
2023/06/16 18:33:20;;;;;;;8.40;7.80;;;;;;;21.84;39.67;99084.70;436558;1253;138777;-68
2023/06/16 18:43:24;;;;;;;9.60;8.40;;;;;;;21.44;41.12;99084.29;436756;1256;138647;-69
2023/06/16 18:53:31;;;;;;;12.90;8.30;;;;;;;20.88;43.74;99084.83;436856;1250;138188;-68
2023/06/16 19:03:34;;;;;;;13.70;8.90;;;;;;;20.26;46.11;99096.61;436338;1253;139418;-68
2023/06/16 19:13:37;;;;;;;9.20;8.40;;;;;;;19.68;47.70;99101.06;436056;1253;138855;-67
2023/06/16 19:23:42;;;;;;;11.00;9.30;;;;;;;19.14;48.89;99111.13;436128;1254;138286;-69
2023/06/16 19:33:45;;;;;;;15.60;10.80;;;;;;;18.56;51.06;99119.82;436162;1251;139223;-69
2023/06/16 19:43:48;;;;;;;13.50;12.20;;;;;;;18.05;53.33;99128.58;435754;1254;139118;-69
2023/06/16 19:53:51;;;;;;;14.00;12.80;;;;;;;17.64;55.05;99129.48;436561;1251;139102;-68
2023/06/16 20:03:54;;;;;;;14.10;12.80;;;;;;;17.21;56.62;99123.72;436491;1253;138473;-69
2023/06/16 20:13:58;;;;;;;15.00;13.70;;;;;;;16.84;57.93;99122.21;436224;1251;138535;-69
2023/06/16 20:24:01;;;;;;;15.10;13.80;;;;;;;16.55;59.22;99125.67;436462;1251;139883;-67
2023/06/16 20:34:05;;;;;;;16.50;15.00;;;;;;;16.33;59.71;99130.09;436547;1252;140556;-69
2023/06/16 20:44:08;;;;;;;17.40;15.60;;;;;;;16.18;60.90;99125.10;436169;1254;139269;-69
2023/06/16 20:54:12;;;;;;;16.70;14.90;;;;;;;16.08;61.89;99123.55;436525;1251;140851;-67
2023/06/16 21:04:21;;;;;;;14.80;13.20;;;;;;;15.90;62.66;99117.45;436565;1251;140160;-69
2023/06/16 21:14:25;;;;;;;15.60;13.90;;;;;;;15.82;63.06;99113.11;436241;1254;139634;-69
2023/06/16 21:24:28;;;;;;;16.10;13.30;;;;;;;15.65;63.71;99112.00;436386;1251;140585;-70
2023/06/16 21:34:32;;;;;;;19.50;17.50;;;;;;;15.47;63.93;99111.88;436871;1255;139727;-68
2023/06/16 21:44:35;;;;;;;18.20;15.60;;;;;;;15.30;64.51;99116.27;436167;1251;140551;-68
2023/06/16 21:54:39;;;;;;;20.10;17.10;;;;;;;15.23;65.09;99109.62;436357;1251;140113;-68
2023/06/16 22:04:42;;;;;;;16.10;13.70;;;;;;;15.10;65.90;99106.03;436486;1251;139055;-69
2023/06/16 22:14:45;;;;;;;14.40;13.10;;;;;;;14.98;66.90;99103.45;436390;1253;139622;-70
2023/06/16 22:24:49;;;;;;;15.30;13.90;;;;;;;14.78;67.66;99090.79;436639;1254;139656;-70
2023/06/16 22:34:52;;;;;;;12.90;11.80;;;;;;;14.55;68.29;99083.38;436597;1251;139114;-69
2023/06/16 22:44:56;;;;;;;12.50;11.30;;;;;;;14.22;69.14;99073.08;436577;1254;141003;-68
2023/06/16 22:54:59;;;;;;;13.40;12.10;;;;;;;14.21;69.95;99058.73;436450;1252;140781;-69
2023/06/16 23:05:02;;;;;;;12.40;11.20;;;;;;;14.15;70.26;99055.55;436514;1256;139034;-69
2023/06/16 23:15:07;;;;;;;11.00;9.90;;;;;;;14.01;70.58;99057.81;436652;1250;139148;-68
2023/06/16 23:25:11;;;;;;;11.70;10.50;;;;;;;13.86;70.89;99046.95;436411;1254;139265;-68
2023/06/16 23:35:14;;;;;;;11.00;9.90;;;;;;;13.68;71.52;99052.01;436233;1255;139386;-69
2023/06/16 23:45:17;;;;;;;11.30;10.00;;;;;;;13.53;72.39;99053.63;436264;1251;140376;-69
2023/06/16 23:55:20;;;;;;;11.20;10.30;;;;;;;13.44;72.81;99049.27;436607;1255;140331;-70
